Time;durP1;ratioP1;P1;durP2;ratioP2;P2;SDS_P1;SDS_P2;PMS_P1;PMS_P2;Temp;Humidity;BMP_temperature;BMP_pressure;BME280_temperature;BME280_humidity;BME280_pressure;Samples;Min_cycle;Max_cycle;Signal;HPM_P1;HPM_P2
2021/03/06 00:00:30;;;;;;;4.97;3.53;;;-1.00;99.90;;;;;;5044816;28;20207;-95
2021/03/06 00:02:57;;;;;;;4.55;3.30;;;-0.90;99.90;;;;;;5047788;28;20224;-94
2021/03/06 00:05:32;;;;;;;3.40;3.10;;;-0.90;99.90;;;;;;5058837;28;20240;-94
2021/03/06 00:08:06;;;;;;;4.90;3.65;;;-0.90;99.90;;;;;;5059627;28;20228;-96
2021/03/06 00:10:41;;;;;;;6.40;3.10;;;-0.90;99.90;;;;;;5059402;28;20213;-95
2021/03/06 00:13:16;;;;;;;5.05;3.65;;;-0.90;99.90;;;;;;5059235;28;20185;-95
2021/03/06 00:15:54;;;;;;;4.05;3.70;;;-0.90;99.90;;;;;;5058206;28;20213;-95
2021/03/06 00:18:24;;;;;;;4.88;3.80;;;-0.90;99.90;;;;;;5059478;28;20192;-95
2021/03/06 00:20:57;;;;;;;5.60;3.33;;;-1.00;99.90;;;;;;5058470;28;20220;-95
2021/03/06 00:23:30;;;;;;;3.85;3.10;;;-1.00;99.90;;;;;;5059447;28;20206;-95
2021/03/06 00:26:08;;;;;;;3.90;3.40;;;-1.00;99.90;;;;;;5059270;28;20287;-94
2021/03/06 00:31:09;;;;;;;8.45;3.60;;;-1.00;99.90;;;;;;5123502;27;20727;-73
2021/03/06 00:33:35;;;;;;;3.80;3.50;;;-1.00;99.90;;;;;;5131731;27;20202;-73
2021/03/06 00:36:03;;;;;;;4.40;4.00;;;-1.00;99.90;;;;;;5132324;27;20222;-72
2021/03/06 00:38:29;;;;;;;4.85;3.42;;;-1.00;99.90;;;;;;5131808;27;20206;-73
2021/03/06 00:40:55;;;;;;;4.30;3.70;;;-1.00;99.90;;;;;;5131575;27;20329;-73
2021/03/06 00:43:22;;;;;;;5.95;3.50;;;-1.00;99.90;;;;;;5131888;27;20568;-73
2021/03/06 00:45:48;;;;;;;3.78;3.42;;;-1.10;99.90;;;;;;5131985;27;20194;-72
2021/03/06 00:48:14;;;;;;;4.22;3.55;;;-1.10;99.90;;;;;;5131992;27;20207;-72
2021/03/06 00:50:40;;;;;;;4.38;3.45;;;-1.10;99.90;;;;;;5131208;27;20295;-71
2021/03/06 00:53:07;;;;;;;3.70;3.38;;;-1.10;99.90;;;;;;5131910;27;20206;-72
2021/03/06 00:55:34;;;;;;;3.90;3.40;;;-1.10;99.90;;;;;;5131567;27;20222;-73
2021/03/06 00:58:00;;;;;;;4.88;3.92;;;-1.10;99.90;;;;;;5132469;27;20645;-74
2021/03/06 01:00:26;;;;;;;4.03;3.60;;;-1.10;99.90;;;;;;5131044;27;20226;-73
2021/03/06 01:02:53;;;;;;;5.13;3.92;;;-1.10;99.90;;;;;;5131761;27;20669;-73
2021/03/06 01:05:19;;;;;;;6.18;4.00;;;-1.20;99.90;;;;;;5131791;27;20204;-72
2021/03/06 01:07:45;;;;;;;4.72;3.95;;;-1.20;99.90;;;;;;5132600;27;20198;-72
2021/03/06 01:10:16;;;;;;;3.88;3.42;;;-1.20;99.90;;;;;;5130896;27;20218;-72
2021/03/06 01:12:43;;;;;;;6.25;3.90;;;-1.30;99.90;;;;;;5131568;27;20206;-72
2021/03/06 01:15:09;;;;;;;4.93;3.40;;;-1.30;99.90;;;;;;5131280;27;20241;-72
2021/03/06 01:17:36;;;;;;;4.15;3.75;;;-1.30;99.90;;;;;;5130804;27;20202;-72
2021/03/06 01:20:03;;;;;;;5.30;3.80;;;-1.40;99.90;;;;;;5130457;27;20237;-72
2021/03/06 01:22:29;;;;;;;6.72;4.10;;;-1.40;99.90;;;;;;5131066;27;20598;-73
2021/03/06 01:24:55;;;;;;;4.20;3.80;;;-1.40;99.90;;;;;;5130877;27;20195;-72
2021/03/06 01:27:22;;;;;;;4.45;3.90;;;-1.40;99.90;;;;;;5131014;27;20203;-72
2021/03/06 01:29:49;;;;;;;7.20;3.97;;;-1.40;99.90;;;;;;5130712;27;20234;-72
2021/03/06 01:32:15;;;;;;;4.45;3.95;;;-1.50;99.90;;;;;;5130931;27;20202;-72
2021/03/06 01:34:41;;;;;;;4.20;3.80;;;-1.50;99.90;;;;;;5130897;27;20202;-73
2021/03/06 01:37:07;;;;;;;3.78;3.42;;;-1.50;99.90;;;;;;5115107;27;20203;-72
2021/03/06 01:39:34;;;;;;;6.55;4.68;;;-1.50;99.90;;;;;;5109403;28;20603;-72
2021/03/06 01:42:00;;;;;;;4.50;3.65;;;-1.60;99.90;;;;;;5110431;28;20199;-71
2021/03/06 01:44:27;;;;;;;4.20;3.80;;;-1.60;99.90;;;;;;5110333;28;20438;-72
2021/03/06 01:46:53;;;;;;;4.63;4.10;;;-1.60;99.90;;;;;;5110413;28;20195;-73
2021/03/06 01:49:19;;;;;;;4.78;4.10;;;-1.60;99.90;;;;;;5109525;28;20669;-72
2021/03/06 01:51:45;;;;;;;5.72;4.20;;;-1.60;99.90;;;;;;5110074;28;20222;-72
2021/03/06 01:54:13;;;;;;;4.75;3.83;;;-1.70;99.90;;;;;;5109950;28;20244;-72
2021/03/06 01:56:40;;;;;;;5.15;4.13;;;-1.70;99.90;;;;;;5110064;28;20894;-73
2021/03/06 01:59:06;;;;;;;4.95;4.10;;;-1.70;99.90;;;;;;5109640;28;20579;-73
2021/03/06 02:01:33;;;;;;;5.30;4.18;;;-1.80;99.90;;;;;;5109538;28;20229;-73
2021/03/06 02:04:00;;;;;;;4.82;4.38;;;-1.80;99.90;;;;;;5109999;28;20275;-72
2021/03/06 02:06:26;;;;;;;6.25;4.20;;;-1.80;99.90;;;;;;5109873;28;20248;-72
2021/03/06 02:08:53;;;;;;;6.50;4.13;;;-1.90;99.90;;;;;;5113856;28;20198;-72
2021/03/06 02:11:31;;;;;;;4.70;4.22;;;-1.90;99.90;;;;;;5109941;28;20223;-73
2021/03/06 02:14:10;;;;;;;6.32;4.22;;;-1.90;99.90;;;;;;5108285;28;20198;-72
2021/03/06 02:16:42;;;;;;;6.32;4.35;;;-2.00;99.90;;;;;;5109428;28;20219;-72
2021/03/06 02:19:26;;;;;;;4.70;4.15;;;-2.10;99.90;;;;;;5108918;28;20421;-72
2021/03/06 02:22:04;;;;;;;7.05;3.67;;;-2.10;99.90;;;;;;5109776;28;20608;-73
2021/03/06 02:24:51;;;;;;;4.80;4.13;;;-2.20;99.90;;;;;;5109202;28;20646;-72
2021/03/06 02:27:26;;;;;;;4.50;3.85;;;-2.20;99.90;;;;;;5109419;28;20221;-72
2021/03/06 02:29:57;;;;;;;5.50;4.20;;;-2.30;99.90;;;;;;5108124;28;20226;-72
2021/03/06 02:32:25;;;;;;;6.20;4.20;;;-2.30;99.90;;;;;;5109161;28;20206;-72
2021/03/06 02:35:02;;;;;;;5.70;4.43;;;-2.30;99.90;;;;;;5109514;28;20203;-72
2021/03/06 02:37:31;;;;;;;5.40;4.30;;;-2.40;99.90;;;;;;5109008;28;20279;-72
2021/03/06 02:39:59;;;;;;;5.85;4.13;;;-2.40;99.90;;;;;;5109032;28;20219;-72
2021/03/06 02:42:28;;;;;;;4.70;4.10;;;-2.40;99.90;;;;;;5108779;28;20684;-71
2021/03/06 02:44:57;;;;;;;5.45;4.30;;;-2.50;99.90;;;;;;5109304;28;20210;-72
2021/03/06 02:47:23;;;;;;;5.40;4.30;;;-2.50;99.90;;;;;;5108900;28;20210;-72
2021/03/06 02:49:57;;;;;;;5.60;4.00;;;-2.60;99.90;;;;;;5108533;28;20223;-72
2021/03/06 02:52:24;;;;;;;4.50;4.10;;;-2.60;99.90;;;;;;5108913;28;20195;-72
2021/03/06 02:54:50;;;;;;;6.30;4.70;;;-2.60;99.90;;;;;;5109021;28;20613;-72
2021/03/06 02:57:33;;;;;;;5.80;4.30;;;-2.60;99.90;;;;;;5109006;28;20206;-72
2021/03/06 03:00:12;;;;;;;5.05;4.63;;;-2.60;99.90;;;;;;5108591;28;20226;-73
2021/03/06 03:02:46;;;;;;;4.38;3.97;;;-2.70;99.90;;;;;;5108862;28;20222;-71
2021/03/06 03:05:24;;;;;;;4.15;3.85;;;-2.70;99.90;;;;;;5109463;28;20248;-72
2021/03/06 03:07:53;;;;;;;5.72;4.50;;;-2.70;99.90;;;;;;5107607;28;20202;-72
2021/03/06 03:10:22;;;;;;;6.07;4.95;;;-2.60;99.90;;;;;;5106180;28;20256;-72
2021/03/06 03:12:55;;;;;;;6.72;4.70;;;-2.60;99.90;;;;;;5106268;28;20206;-72
2021/03/06 03:15:28;;;;;;;5.13;4.00;;;-2.60;99.90;;;;;;5109051;28;20230;-72
2021/03/06 03:17:56;;;;;;;6.05;4.72;;;-2.50;99.90;;;;;;5108898;28;20678;-72
2021/03/06 03:20:31;;;;;;;4.50;3.67;;;-2.60;99.90;;;;;;5107496;28;20261;-72
2021/03/06 03:23:03;;;;;;;5.88;4.88;;;-2.70;99.90;;;;;;5108968;28;20202;-72
2021/03/06 03:25:30;;;;;;;4.63;4.22;;;-2.80;99.90;;;;;;5108833;28;20210;-72
2021/03/06 03:27:57;;;;;;;5.72;4.88;;;-2.90;99.90;;;;;;5108724;28;20575;-72
2021/03/06 03:30:25;;;;;;;5.78;4.20;;;-2.90;99.90;;;;;;5107368;28;20256;-72
2021/03/06 03:32:53;;;;;;;5.88;4.55;;;-3.00;99.90;;;;;;5107846;28;20838;-72
2021/03/06 03:35:24;;;;;;;5.55;4.03;;;-2.90;99.90;;;;;;5107581;28;20583;-72
2021/03/06 03:37:52;;;;;;;6.45;4.97;;;-3.00;99.90;;;;;;5107788;28;20206;-72
2021/03/06 03:40:20;;;;;;;5.40;4.03;;;-3.00;99.90;;;;;;5108671;28;20222;-72
2021/03/06 03:42:48;;;;;;;5.00;4.60;;;-3.10;99.90;;;;;;5111321;28;20280;-72
2021/03/06 03:45:17;;;;;;;4.30;3.90;;;-3.10;99.90;;;;;;5111375;28;20586;-72
2021/03/06 03:47:44;;;;;;;6.60;3.90;;;-3.10;99.90;;;;;;5111108;28;20604;-73
2021/03/06 03:50:13;;;;;;;5.03;4.53;;;-3.20;99.90;;;;;;5110741;28;20223;-73
2021/03/06 03:52:43;;;;;;;5.28;4.57;;;-3.20;99.90;;;;;;5110870;28;20280;-73
2021/03/06 03:55:11;;;;;;;4.75;4.25;;;-3.20;99.90;;;;;;5111292;28;20309;-73
2021/03/06 03:57:38;;;;;;;6.72;5.03;;;-3.30;99.90;;;;;;5110574;28;20203;-72
2021/03/06 04:00:06;;;;;;;6.03;4.20;;;-3.20;99.90;;;;;;5110368;28;20222;-73
2021/03/06 04:02:32;;;;;;;5.40;4.53;;;-3.30;99.90;;;;;;5110643;28;20553;-72
2021/03/06 04:04:59;;;;;;;4.93;4.40;;;-3.30;99.90;;;;;;5110911;28;20222;-72
2021/03/06 04:07:25;;;;;;;6.82;4.95;;;-3.30;99.90;;;;;;5110629;28;20252;-73
2021/03/06 04:09:52;;;;;;;6.70;5.28;;;-3.30;99.90;;;;;;5110135;28;20685;-73
2021/03/06 04:12:18;;;;;;;9.00;4.60;;;-3.30;99.90;;;;;;5110746;28;20199;-72
2021/03/06 04:14:44;;;;;;;5.03;4.53;;;-3.40;99.90;;;;;;5110720;28;20282;-72
2021/03/06 04:17:12;;;;;;;5.30;4.80;;;-3.40;99.90;;;;;;5110913;28;20199;-72
2021/03/06 04:19:38;;;;;;;5.75;4.80;;;-3.40;99.90;;;;;;5109821;28;20214;-72
2021/03/06 04:22:05;;;;;;;7.53;4.90;;;-3.40;99.90;;;;;;5110543;28;20206;-72
2021/03/06 04:24:31;;;;;;;3.97;3.57;;;-3.40;99.90;;;;;;5242036;22;542949;-72
2021/03/06 04:26:58;;;;;;;5.20;4.43;;;-3.40;99.90;;;;;;5050627;28;20438;-70
2021/03/06 04:29:24;;;;;;;5.25;4.53;;;-3.40;99.90;;;;;;5050411;28;20201;-69
2021/03/06 04:31:50;;;;;;;6.30;4.70;;;-3.40;99.90;;;;;;5031332;28;20202;-73
2021/03/06 04:34:16;;;;;;;5.68;4.20;;;-3.50;99.90;;;;;;5030828;28;20202;-72
2021/03/06 04:36:43;;;;;;;5.57;4.60;;;-3.50;99.90;;;;;;5030909;28;20708;-72
2021/03/06 04:39:10;;;;;;;7.50;4.38;;;-3.60;99.90;;;;;;5030626;28;20252;-70
2021/03/06 04:41:36;;;;;;;5.57;4.55;;;-3.50;99.90;;;;;;5031373;28;20226;-71
2021/03/06 04:44:04;;;;;;;7.95;4.50;;;-3.60;99.90;;;;;;5030928;28;20221;-71
2021/03/06 04:46:31;;;;;;;4.40;4.00;;;-3.60;99.90;;;;;;5030827;28;20198;-70
2021/03/06 04:48:57;;;;;;;5.03;4.47;;;-3.60;99.90;;;;;;5030294;28;20202;-71
2021/03/06 04:51:23;;;;;;;4.88;3.78;;;-3.70;99.90;;;;;;5029535;28;20645;-69
2021/03/06 04:53:50;;;;;;;6.25;4.35;;;-3.70;99.90;;;;;;5030941;28;20205;-71
2021/03/06 04:56:17;;;;;;;6.40;4.65;;;-3.70;99.90;;;;;;5030421;28;20568;-71
2021/03/06 04:58:43;;;;;;;4.60;4.10;;;-3.80;99.90;;;;;;5030282;28;20205;-70
2021/03/06 05:01:09;;;;;;;6.55;4.95;;;-3.80;99.90;;;;;;5030563;28;20380;-70
2021/03/06 05:03:35;;;;;;;6.70;4.43;;;-3.80;99.90;;;;;;5030457;28;20205;-69
2021/03/06 05:06:01;;;;;;;4.70;4.28;;;-3.90;99.90;;;;;;5030415;28;20669;-71
2021/03/06 05:08:28;;;;;;;5.50;4.35;;;-3.90;99.90;;;;;;5030001;28;20209;-70
2021/03/06 05:10:54;;;;;;;6.35;4.30;;;-3.90;99.90;;;;;;5029773;28;20240;-69
2021/03/06 05:13:21;;;;;;;7.88;4.38;;;-3.90;99.90;;;;;;5030445;28;20696;-70
2021/03/06 05:15:47;;;;;;;5.45;4.45;;;-4.00;99.90;;;;;;5030164;28;20226;-71
2021/03/06 05:18:13;;;;;;;5.70;4.13;;;-4.00;99.90;;;;;;5030337;28;20622;-71
2021/03/06 05:20:39;;;;;;;5.88;4.68;;;-3.90;99.90;;;;;;5029415;28;20276;-70
2021/03/06 05:23:06;;;;;;;4.97;4.20;;;-4.00;99.90;;;;;;5030219;28;20239;-71
2021/03/06 05:25:33;;;;;;;5.30;4.40;;;-4.10;99.90;;;;;;5030168;28;20264;-69
2021/03/06 05:27:59;;;;;;;5.35;4.20;;;-4.10;99.90;;;;;;5029934;28;20210;-70
2021/03/06 05:30:26;;;;;;;5.53;4.28;;;-4.10;99.90;;;;;;5029657;28;20936;-69
2021/03/06 05:32:53;;;;;;;6.15;5.15;;;-4.10;99.90;;;;;;5029984;28;20202;-72
2021/03/06 05:35:19;;;;;;;4.97;4.45;;;-4.10;99.90;;;;;;5030009;28;20226;-71
2021/03/06 05:37:45;;;;;;;6.07;4.85;;;-4.10;99.90;;;;;;5029834;28;20606;-72
2021/03/06 05:40:12;;;;;;;7.00;4.63;;;-4.10;99.90;;;;;;5599141;22;20232;-72
2021/03/06 05:42:38;;;;;;;5.78;4.43;;;-4.10;99.90;;;;;;5039898;28;20212;-72
2021/03/06 05:45:07;;;;;;;7.18;4.80;;;-4.10;99.90;;;;;;5050678;28;20201;-72
2021/03/06 05:47:34;;;;;;;4.57;4.18;;;-4.10;99.90;;;;;;5051776;28;20619;-72
2021/03/06 05:50:02;;;;;;;8.85;4.40;;;-4.10;99.90;;;;;;5049606;28;20229;-72
2021/03/06 05:52:29;;;;;;;5.95;5.43;;;-4.10;99.90;;;;;;5062839;28;20227;-72
2021/03/06 05:54:56;;;;;;;5.15;4.13;;;-4.20;99.90;;;;;;5070902;28;20204;-72
2021/03/06 05:57:23;;;;;;;5.35;4.80;;;-4.20;99.90;;;;;;5071257;28;20208;-71
2021/03/06 05:59:50;;;;;;;5.38;4.30;;;-4.10;99.90;;;;;;5070375;28;20204;-73
2021/03/06 06:02:17;;;;;;;5.40;4.90;;;-4.10;99.90;;;;;;5070290;28;20674;-73
2021/03/06 06:04:45;;;;;;;5.55;4.55;;;-4.10;99.90;;;;;;5070649;28;20640;-73
2021/03/06 06:07:14;;;;;;;6.95;4.82;;;-4.10;99.90;;;;;;5070149;28;20203;-73
2021/03/06 06:09:40;;;;;;;9.48;4.68;;;-4.20;99.90;;;;;;5069899;28;20689;-73
2021/03/06 06:12:07;;;;;;;6.45;4.28;;;-4.20;99.90;;;;;;5070646;28;20205;-73
2021/03/06 06:14:34;;;;;;;5.47;4.90;;;-4.10;99.90;;;;;;5070600;28;20200;-73
2021/03/06 06:17:05;;;;;;;5.95;4.55;;;-4.20;99.90;;;;;;5070722;28;20224;-73
2021/03/06 06:19:32;;;;;;;6.07;4.47;;;-4.10;99.90;;;;;;5069455;28;20659;-73
2021/03/06 06:22:00;;;;;;;6.45;4.55;;;-4.20;99.90;;;;;;5069903;28;20231;-73
2021/03/06 06:24:26;;;;;;;7.07;5.05;;;-4.20;99.90;;;;;;5069968;28;20211;-73
2021/03/06 06:26:54;;;;;;;5.53;4.20;;;-4.20;99.90;;;;;;5070029;28;20192;-72
2021/03/06 06:29:35;;;;;;;7.00;4.70;;;-4.10;99.90;;;;;;5070544;28;20211;-73
2021/03/06 06:32:02;;;;;;;8.95;6.38;;;-4.10;99.90;;;;;;5070937;28;20458;-72
2021/03/06 06:34:28;;;;;;;5.60;5.00;;;-4.00;99.90;;;;;;5072462;28;20200;-72
2021/03/06 06:36:54;;;;;;;5.60;5.03;;;-3.90;99.90;;;;;;5077104;28;20601;-73
2021/03/06 06:39:29;;;;;;;6.03;5.20;;;-3.90;99.90;;;;;;5076602;28;20204;-72
2021/03/06 06:41:57;;;;;;;10.98;6.18;;;-3.80;99.90;;;;;;5075470;28;20227;-73
2021/03/06 06:44:24;;;;;;;5.90;4.88;;;-3.60;99.90;;;;;;5070212;28;20220;-72
2021/03/06 06:46:52;;;;;;;5.00;4.57;;;-3.50;99.90;;;;;;5070787;28;20955;-72
2021/03/06 06:49:18;;;;;;;4.95;4.43;;;-3.40;99.90;;;;;;5068842;28;20212;-72
2021/03/06 06:52:01;;;;;;;5.20;4.63;;;-3.30;99.90;;;;;;5069762;28;20908;-72
2021/03/06 06:54:29;;;;;;;6.03;5.13;;;-3.20;99.90;;;;;;5069420;28;20223;-71
2021/03/06 06:57:11;;;;;;;5.68;4.60;;;-3.10;99.90;;;;;;5072944;28;20278;-71
2021/03/06 06:59:38;;;;;;;4.70;4.20;;;-3.10;99.90;;;;;;5064748;28;20240;-73
2021/03/06 07:02:06;;;;;;;5.47;4.55;;;-3.00;99.90;;;;;;5076148;28;20204;-73
2021/03/06 07:04:43;;;;;;;6.28;5.35;;;-2.90;99.90;;;;;;5076435;28;20204;-73
2021/03/06 07:07:13;;;;;;;4.40;4.00;;;-2.80;99.90;;;;;;5073416;28;20408;-73
2021/03/06 07:09:55;;;;;;;5.43;4.93;;;-2.70;99.90;;;;;;5057490;28;20204;-73
2021/03/06 07:12:22;;;;;;;5.28;4.80;;;-2.40;99.90;;;;;;5057373;28;20201;-72
2021/03/06 07:14:50;;;;;;;5.55;4.53;;;-2.00;99.90;;;;;;5058651;28;20276;-73
2021/03/06 07:17:16;;;;;;;6.95;4.72;;;-1.40;99.90;;;;;;5059750;28;20330;-73
2021/03/06 07:19:44;;;;;;;5.80;4.70;;;-0.70;99.90;;;;;;5058289;28;20276;-72
2021/03/06 07:22:12;;;;;;;6.57;4.40;;;0.10;99.90;;;;;;5056163;28;20287;-72
2021/03/06 07:24:38;;;;;;;5.00;4.50;;;0.90;99.90;;;;;;5055639;28;20201;-72
2021/03/06 07:27:06;;;;;;;6.15;3.90;;;1.70;99.90;;;;;;5055785;28;20213;-72
2021/03/06 07:29:32;;;;;;;5.00;3.95;;;2.30;98.20;;;;;;5054654;28;20271;-72
2021/03/06 07:32:00;;;;;;;4.53;3.95;;;3.00;97.30;;;;;;5054730;28;20742;-72
2021/03/06 07:34:28;;;;;;;5.05;4.55;;;4.00;95.80;;;;;;5054376;28;20553;-72
2021/03/06 07:36:58;;;;;;;5.15;4.53;;;4.90;94.20;;;;;;5053610;28;20216;-72
2021/03/06 07:39:34;;;;;;;5.20;4.03;;;5.20;92.00;;;;;;5053722;28;20227;-72
2021/03/06 07:42:02;;;;;;;5.25;4.20;;;5.30;91.70;;;;;;5053773;28;20224;-72
2021/03/06 07:44:31;;;;;;;4.40;4.00;;;5.50;90.60;;;;;;5053839;28;20205;-72
2021/03/06 07:46:59;;;;;;;6.20;4.68;;;5.70;90.70;;;;;;5053995;28;20201;-73
2021/03/06 07:49:32;;;;;;;5.70;4.50;;;6.40;90.00;;;;;;5052878;28;20220;-72
2021/03/06 07:52:01;;;;;;;5.05;4.40;;;6.80;89.20;;;;;;5053764;28;20221;-73
2021/03/06 07:54:28;;;;;;;6.20;4.18;;;7.20;86.90;;;;;;5054248;28;20966;-73
2021/03/06 07:56:55;;;;;;;5.35;4.32;;;7.50;85.10;;;;;;5050771;28;20217;-72
2021/03/06 07:59:52;;;;;;;4.25;3.83;;;7.80;85.10;;;;;;5052592;28;20679;-73
2021/03/06 08:02:37;;;;;;;4.85;4.35;;;8.30;84.90;;;;;;5053208;28;20204;-72
2021/03/06 08:05:03;;;;;;;4.95;4.45;;;8.50;82.30;;;;;;5052902;28;20205;-73
2021/03/06 08:07:41;;;;;;;4.57;4.18;;;8.40;81.90;;;;;;5052912;28;20209;-72
2021/03/06 08:10:09;;;;;;;5.93;4.60;;;8.50;81.90;;;;;;5052060;28;20277;-72
2021/03/06 08:12:36;;;;;;;5.40;4.55;;;8.60;80.50;;;;;;5052166;28;20208;-72
2021/03/06 08:15:31;;;;;;;5.93;5.38;;;8.60;80.70;;;;;;5052242;28;20213;-72
2021/03/06 08:17:59;;;;;;;5.65;5.00;;;8.50;80.70;;;;;;5052486;28;20212;-72
2021/03/06 08:20:28;;;;;;;5.93;4.75;;;8.50;80.50;;;;;;5052160;28;20221;-72
2021/03/06 08:23:30;;;;;;;6.15;5.20;;;8.60;82.20;;;;;;5053028;28;20208;-72
2021/03/06 08:26:27;;;;;;;6.68;5.10;;;9.50;79.10;;;;;;4990508;28;20206;-72
2021/03/06 08:28:55;;;;;;;4.90;4.50;;;10.10;76.30;;;;;;4990886;28;20207;-72
2021/03/06 08:31:38;;;;;;;5.15;4.65;;;10.30;76.40;;;;;;5032533;28;20240;-72
2021/03/06 08:34:27;;;;;;;6.05;5.00;;;10.70;73.70;;;;;;5053079;28;20205;-72
2021/03/06 08:37:08;;;;;;;6.82;5.28;;;11.40;73.90;;;;;;5052926;28;20225;-72
2021/03/06 08:39:34;;;;;;;6.15;5.53;;;12.10;71.50;;;;;;5051936;28;20204;-72
2021/03/06 08:42:01;;;;;;;6.03;5.05;;;12.90;70.60;;;;;;5052777;28;20703;-72
2021/03/06 08:44:27;;;;;;;5.00;4.50;;;13.40;68.80;;;;;;5052957;28;20563;-72
2021/03/06 08:46:54;;;;;;;6.18;5.38;;;14.10;65.30;;;;;;5055519;28;20201;-72
2021/03/06 08:49:21;;;;;;;5.20;4.25;;;13.60;65.40;;;;;;5058628;28;20231;-72
2021/03/06 08:51:48;;;;;;;5.60;4.82;;;14.30;65.20;;;;;;5057144;28;20221;-72
2021/03/06 08:54:14;;;;;;;5.80;5.15;;;14.80;62.90;;;;;;5056011;28;20294;-72
2021/03/06 08:56:41;;;;;;;4.93;4.43;;;14.70;62.70;;;;;;5055752;28;20221;-72
2021/03/06 08:59:07;;;;;;;5.18;4.70;;;14.80;61.70;;;;;;5054572;28;20647;-71
2021/03/06 09:01:33;;;;;;;5.47;4.97;;;14.30;61.10;;;;;;5054328;28;21123;-72
2021/03/06 09:04:01;;;;;;;5.20;4.70;;;14.10;61.40;;;;;;5054121;28;20521;-71
2021/03/06 09:06:34;;;;;;;11.40;4.47;;;14.70;60.00;;;;;;5053330;28;20463;-72
2021/03/06 09:09:01;;;;;;;4.97;4.47;;;14.40;61.40;;;;;;5053278;28;20517;-71
2021/03/06 09:11:28;;;;;;;4.80;4.40;;;14.50;59.90;;;;;;5052944;28;20233;-71
2021/03/06 09:13:55;;;;;;;4.83;4.43;;;14.90;59.70;;;;;;5053340;28;20465;-71
2021/03/06 09:16:21;;;;;;;5.78;5.00;;;15.30;58.20;;;;;;5052325;28;20494;-71
2021/03/06 09:18:47;;;;;;;5.07;4.60;;;15.30;57.30;;;;;;5051701;28;20201;-71
2021/03/06 09:21:20;;;;;;;5.15;4.55;;;15.10;58.60;;;;;;5051392;28;20488;-71
2021/03/06 09:23:47;;;;;;;4.73;4.33;;;14.60;56.10;;;;;;5051902;28;20682;-71
2021/03/06 09:26:16;;;;;;;4.60;4.20;;;13.90;58.30;;;;;;5051596;28;20462;-71
2021/03/06 09:28:44;;;;;;;4.63;4.22;;;13.80;58.80;;;;;;5051386;28;20197;-71
2021/03/06 09:31:14;;;;;;;4.93;4.43;;;14.50;58.40;;;;;;5051239;28;20741;-71
2021/03/06 09:33:41;;;;;;;4.47;4.07;;;15.10;58.20;;;;;;5051687;28;20205;-71
2021/03/06 09:36:11;;;;;;;5.45;4.57;;;15.80;57.90;;;;;;5051183;28;20480;-70
2021/03/06 09:38:46;;;;;;;5.05;4.55;;;14.90;56.30;;;;;;5050729;28;20208;-71
2021/03/06 09:41:14;;;;;;;4.25;3.80;;;14.20;56.80;;;;;;5050843;28;20255;-71
2021/03/06 09:43:41;;;;;;;5.10;4.18;;;13.60;57.10;;;;;;5051161;28;20266;-71
2021/03/06 09:46:16;;;;;;;4.85;4.38;;;13.40;57.80;;;;;;5051264;28;20198;-71
2021/03/06 09:48:53;;;;;;;4.20;3.80;;;14.40;58.80;;;;;;5051278;28;20226;-72
2021/03/06 09:51:20;;;;;;;3.95;3.55;;;15.70;57.40;;;;;;5051138;28;20742;-71
2021/03/06 09:53:56;;;;;;;4.10;3.80;;;15.80;57.30;;;;;;5051051;28;20197;-71
2021/03/06 09:56:23;;;;;;;4.50;3.70;;;16.50;57.00;;;;;;5051066;28;20479;-71
2021/03/06 09:58:58;;;;;;;4.30;3.90;;;17.00;55.20;;;;;;5051286;28;20524;-71
2021/03/06 10:01:25;;;;;;;3.60;3.30;;;17.30;54.50;;;;;;5051242;28;20489;-72
2021/03/06 10:03:51;;;;;;;4.20;3.80;;;17.40;54.60;;;;;;5043910;28;20459;-74
2021/03/06 10:06:20;;;;;;;3.93;3.60;;;17.40;53.60;;;;;;5050260;28;20452;-72
2021/03/06 10:08:49;;;;;;;4.50;4.10;;;17.80;52.20;;;;;;5051202;28;20459;-74
2021/03/06 10:11:17;;;;;;;5.20;3.63;;;18.40;53.40;;;;;;5050377;28;20483;-73
2021/03/06 10:13:45;;;;;;;4.37;3.97;;;18.80;51.90;;;;;;5050676;28;20953;-73
2021/03/06 10:16:11;;;;;;;5.47;4.10;;;19.10;52.90;;;;;;5050080;28;20488;-73
2021/03/06 10:18:39;;;;;;;4.80;4.13;;;19.80;51.00;;;;;;5049229;28;20463;-73
2021/03/06 10:21:18;;;;;;;4.77;4.37;;;19.50;51.00;;;;;;5050361;28;20545;-74
2021/03/06 10:23:44;;;;;;;4.20;3.43;;;19.40;51.50;;;;;;5049674;28;20455;-74
2021/03/06 10:28:39;;;;;;;4.70;4.13;;;19.10;50.90;;;;;;5066389;28;20537;-74
2021/03/06 10:31:06;;;;;;;4.37;3.97;;;18.60;50.90;;;;;;5068204;28;20479;-73
2021/03/06 10:33:38;;;;;;;4.23;3.83;;;18.70;51.60;;;;;;5068695;28;20463;-74
2021/03/06 10:36:14;;;;;;;4.77;4.37;;;18.50;49.80;;;;;;5068142;28;20518;-74
2021/03/06 10:38:42;;;;;;;3.90;3.60;;;18.40;49.50;;;;;;5067836;28;20462;-74
2021/03/06 10:41:16;;;;;;;4.20;3.90;;;18.50;51.10;;;;;;5068411;28;20478;-74
2021/03/06 10:43:44;;;;;;;4.20;3.80;;;18.50;51.00;;;;;;5068602;28;20830;-73
2021/03/06 10:46:12;;;;;;;4.90;4.13;;;18.10;51.50;;;;;;5068671;28;20461;-75
2021/03/06 10:48:39;;;;;;;4.00;3.50;;;18.20;50.50;;;;;;5067232;28;20461;-71
2021/03/06 10:51:07;;;;;;;3.63;3.33;;;18.70;49.70;;;;;;5068101;28;20481;-71
2021/03/06 10:53:34;;;;;;;5.23;3.67;;;19.30;50.30;;;;;;5068121;28;20594;-72
2021/03/06 10:56:04;;;;;;;4.80;3.80;;;19.80;50.50;;;;;;5068772;28;20471;-72
2021/03/06 10:58:45;;;;;;;4.00;3.47;;;19.90;49.80;;;;;;5068206;28;20549;-75
2021/03/06 11:01:12;;;;;;;3.80;3.43;;;19.90;49.20;;;;;;5067946;28;20474;-71
2021/03/06 11:03:43;;;;;;;5.77;3.67;;;19.70;48.00;;;;;;5068293;28;20998;-72
2021/03/06 11:06:10;;;;;;;4.60;3.90;;;19.50;45.10;;;;;;5068295;28;20829;-72
2021/03/06 11:08:37;;;;;;;4.00;3.67;;;18.70;46.10;;;;;;5067732;28;20466;-71
2021/03/06 11:11:03;;;;;;;4.30;3.90;;;17.90;49.40;;;;;;5068268;28;21001;-71
2021/03/06 11:13:42;;;;;;;4.03;3.73;;;17.80;47.60;;;;;;5067202;28;20516;-72
2021/03/06 11:16:11;;;;;;;4.20;3.80;;;16.70;49.30;;;;;;5068392;28;20796;-72
2021/03/06 11:18:39;;;;;;;3.80;3.50;;;16.30;49.60;;;;;;5066918;28;20565;-72
2021/03/06 11:21:08;;;;;;;4.43;4.03;;;17.30;48.40;;;;;;5067361;28;20478;-71
2021/03/06 11:23:35;;;;;;;4.10;3.73;;;17.70;47.40;;;;;;5068172;28;20599;-71
2021/03/06 11:26:02;;;;;;;4.47;4.07;;;17.60;49.00;;;;;;5068537;28;20462;-72
2021/03/06 11:28:29;;;;;;;3.83;3.30;;;18.30;46.60;;;;;;5067784;28;20536;-72
2021/03/06 11:30:55;;;;;;;4.43;4.03;;;18.50;45.90;;;;;;5067333;28;20505;-72
2021/03/06 11:33:23;;;;;;;4.23;3.83;;;17.90;47.70;;;;;;5068220;28;20477;-72
2021/03/06 11:35:50;;;;;;;4.77;4.37;;;17.90;46.80;;;;;;5068190;28;20756;-72
2021/03/06 11:38:19;;;;;;;3.80;3.40;;;17.80;45.30;;;;;;5068169;28;20465;-72
2021/03/06 11:40:47;;;;;;;4.50;3.80;;;18.00;45.00;;;;;;5067174;28;20478;-72
2021/03/06 11:43:15;;;;;;;4.07;3.67;;;18.10;45.70;;;;;;5067814;28;20462;-72
2021/03/06 11:45:41;;;;;;;3.97;3.50;;;18.30;46.80;;;;;;5068140;28;20469;-72
2021/03/06 11:48:09;;;;;;;3.43;3.13;;;18.90;46.90;;;;;;5067888;28;20474;-72
2021/03/06 11:50:38;;;;;;;3.70;3.40;;;19.50;45.90;;;;;;5066920;28;20490;-72
2021/03/06 11:53:05;;;;;;;3.83;3.50;;;19.50;45.70;;;;;;5068095;28;20454;-72
2021/03/06 11:55:32;;;;;;;3.70;3.40;;;19.10;45.80;;;;;;5067377;28;20485;-72
2021/03/06 11:57:58;;;;;;;3.67;3.37;;;19.00;44.60;;;;;;5068311;28;20459;-72
2021/03/06 12:00:26;;;;;;;4.33;3.83;;;19.50;45.20;;;;;;5067556;28;20474;-72
2021/03/06 12:02:53;;;;;;;3.77;3.30;;;19.70;46.00;;;;;;5071304;28;20462;-72
2021/03/06 12:05:20;;;;;;;3.90;3.60;;;20.00;46.90;;;;;;5071880;28;20458;-72
2021/03/06 12:07:47;;;;;;;3.50;3.20;;;19.90;44.30;;;;;;5071227;28;20458;-72
2021/03/06 12:10:15;;;;;;;3.00;2.57;;;20.10;43.50;;;;;;5070952;28;20538;-72
2021/03/06 12:12:44;;;;;;;3.00;2.70;;;20.00;41.60;;;;;;5071108;28;21010;-72
2021/03/06 12:15:12;;;;;;;2.50;2.30;;;19.90;42.80;;;;;;5071804;28;20530;-72
2021/03/06 12:17:38;;;;;;;3.40;3.10;;;19.40;44.00;;;;;;5071217;28;20497;-73
2021/03/06 12:20:07;;;;;;;2.90;2.70;;;19.60;43.50;;;;;;5070673;28;20822;-72
2021/03/06 12:22:33;;;;;;;2.73;2.53;;;19.40;41.80;;;;;;5071316;28;20454;-72
2021/03/06 12:25:01;;;;;;;2.90;2.70;;;19.60;43.00;;;;;;5070907;28;20466;-72
2021/03/06 12:27:27;;;;;;;3.10;2.70;;;19.60;41.10;;;;;;5071241;28;20477;-72
2021/03/06 12:29:53;;;;;;;3.30;3.00;;;19.50;42.10;;;;;;5070449;28;20546;-74
2021/03/06 12:32:19;;;;;;;2.60;2.40;;;19.40;43.50;;;;;;5071187;28;20501;-71
2021/03/06 12:34:46;;;;;;;3.43;3.13;;;19.70;41.90;;;;;;5070855;28;20465;-71
2021/03/06 12:37:12;;;;;;;3.97;2.63;;;20.00;42.80;;;;;;5070916;28;20487;-71
2021/03/06 12:39:38;;;;;;;3.73;2.60;;;20.10;42.70;;;;;;5071320;28;20494;-71
2021/03/06 12:42:06;;;;;;;3.47;2.90;;;19.50;42.70;;;;;;5070730;28;20471;-71
2021/03/06 12:44:33;;;;;;;2.90;2.70;;;20.10;41.40;;;;;;5070491;28;20458;-71
2021/03/06 12:46:59;;;;;;;4.10;2.57;;;19.80;40.20;;;;;;5070625;28;20465;-71
2021/03/06 12:49:25;;;;;;;4.50;2.37;;;19.10;39.30;;;;;;5070179;28;20458;-72
2021/03/06 12:51:51;;;;;;;3.90;3.23;;;19.20;42.10;;;;;;5069474;28;20849;-72
2021/03/06 12:54:18;;;;;;;3.60;2.90;;;19.50;43.60;;;;;;5069640;28;20824;-72
2021/03/06 12:56:44;;;;;;;3.90;3.40;;;19.90;43.70;;;;;;5069856;28;20490;-72
2021/03/06 12:59:11;;;;;;;3.27;2.97;;;20.10;44.70;;;;;;5070102;28;20459;-72
2021/03/06 13:01:37;;;;;;;3.80;3.50;;;19.70;44.90;;;;;;5070552;28;21004;-72